createdAt,value
2023-03-06T00:01:18.459Z,6.40
2023-03-06T00:07:20.431Z,6.03
2023-03-06T00:13:24.997Z,7.90
2023-03-06T00:19:28.103Z,6.87
2023-03-06T00:25:30.189Z,7.93
2023-03-06T00:31:32.397Z,8.20
2023-03-06T00:37:34.329Z,9.10
2023-03-06T00:43:36.360Z,9.13
2023-03-06T00:49:38.490Z,9.07
2023-03-06T00:55:40.377Z,9.80
2023-03-06T01:01:42.349Z,9.13
2023-03-06T01:07:44.320Z,9.90
2023-03-06T01:13:46.377Z,10.53
2023-03-06T01:19:48.258Z,10.10
2023-03-06T01:25:50.141Z,11.23
2023-03-06T01:31:52.270Z,10.30
2023-03-06T01:37:54.212Z,10.70
2023-03-06T01:43:56.262Z,11.70
2023-03-06T01:50:00.620Z,13.30
2023-03-06T01:56:02.738Z,11.97
2023-03-06T02:02:08.744Z,12.43
2023-03-06T02:08:19.297Z,11.77
2023-03-06T02:14:21.698Z,13.77
2023-03-06T02:20:28.919Z,12.40
2023-03-06T02:26:32.835Z,13.13
2023-03-06T02:32:34.908Z,15.17
2023-03-06T02:38:50.916Z,14.03
2023-03-06T02:44:53.832Z,14.67
2023-03-06T02:50:55.905Z,14.37
2023-03-06T02:56:57.793Z,13.80
2023-03-06T03:02:59.886Z,13.97
2023-03-06T03:09:01.790Z,13.90
2023-03-06T03:15:04.624Z,13.77
2023-03-06T03:21:12.945Z,13.20
2023-03-06T03:27:14.918Z,13.03
2023-03-06T03:33:16.832Z,13.33
2023-03-06T03:39:19.818Z,13.70
2023-03-06T03:45:22.185Z,13.70
2023-03-06T03:51:24.150Z,14.50
2023-03-06T03:57:26.208Z,14.70
2023-03-06T04:03:29.236Z,13.00
2023-03-06T04:09:31.396Z,14.13
2023-03-06T04:15:33.384Z,15.60
2023-03-06T04:21:35.296Z,14.33
2023-03-06T04:27:37.178Z,14.53
2023-03-06T04:33:39.341Z,15.07
2023-03-06T04:39:41.189Z,14.87
2023-03-06T04:45:43.153Z,15.17
2023-03-06T04:51:45.055Z,14.43
2023-03-06T04:57:47.807Z,15.20
2023-03-06T05:03:49.983Z,15.30
2023-03-06T05:09:52.027Z,15.43
2023-03-06T05:15:54.175Z,17.27
2023-03-06T05:21:56.067Z,14.57
2023-03-06T05:27:58.434Z,17.60
2023-03-06T05:34:00.690Z,16.70
2023-03-06T05:40:06.728Z,15.57
2023-03-06T05:46:10.525Z,15.67
2023-03-06T05:52:13.165Z,15.77
2023-03-06T05:58:15.063Z,15.37
2023-03-06T06:04:16.946Z,16.37
2023-03-06T06:10:18.924Z,16.97
2023-03-06T06:16:20.828Z,16.30
2023-03-06T06:22:22.705Z,16.77
2023-03-06T06:28:24.604Z,16.60
2023-03-06T06:34:27.470Z,17.63
2023-03-06T06:40:29.651Z,15.90
2023-03-06T06:47:19.312Z,16.63
2023-03-06T06:52:53.495Z,18.00
2023-03-06T06:59:15.358Z,16.60
2023-03-06T07:05:21.009Z,17.60
2023-03-06T07:11:24.246Z,15.30
2023-03-06T07:17:26.198Z,16.70
2023-03-06T07:23:28.421Z,16.70
2023-03-06T07:29:32.919Z,17.37
2023-03-06T07:35:35.292Z,19.43
2023-03-06T07:41:37.325Z,18.23
2023-03-06T07:47:40.147Z,18.53
2023-03-06T07:53:42.499Z,19.17
2023-03-06T07:59:44.373Z,18.70
2023-03-06T08:05:46.351Z,19.90
2023-03-06T08:11:48.279Z,16.93
2023-03-06T08:17:51.068Z,17.67
2023-03-06T08:23:53.308Z,16.30
2023-03-06T08:29:55.195Z,18.37
2023-03-06T08:35:57.111Z,17.13
2023-03-06T08:41:59.037Z,16.50
2023-03-06T08:48:00.939Z,16.43
2023-03-06T08:54:02.991Z,16.97
2023-03-06T09:00:08.840Z,16.50
2023-03-06T09:06:10.799Z,15.47
2023-03-06T09:12:12.680Z,16.00
2023-03-06T09:18:14.555Z,15.20
2023-03-06T09:24:16.532Z,14.33
2023-03-06T09:30:19.010Z,9.60
2023-03-06T09:36:22.746Z,8.60
2023-03-06T09:42:25.406Z,8.57
2023-03-06T09:48:52.048Z,7.97
2023-03-06T09:55:04.604Z,8.40
2023-03-06T10:01:36.578Z,7.67
2023-03-06T10:08:18.653Z,9.67
2023-03-06T10:14:37.946Z,8.43
2023-03-06T10:21:04.739Z,6.67
2023-03-06T10:27:42.921Z,6.93
2023-03-06T10:33:55.667Z,8.07
2023-03-06T10:40:28.864Z,7.03
2023-03-06T10:46:37.421Z,7.87
2023-03-06T10:52:39.510Z,6.87
2023-03-06T10:58:41.450Z,7.33
2023-03-06T11:04:51.282Z,6.30
2023-03-06T11:11:02.299Z,6.60
2023-03-06T11:17:04.497Z,8.60
2023-03-06T11:23:37.264Z,9.37
2023-03-06T11:29:45.391Z,9.30
2023-03-06T11:36:05.320Z,8.87
2023-03-06T11:42:26.120Z,9.50
2023-03-06T11:48:36.851Z,10.13
2023-03-06T11:54:38.855Z,8.23
2023-03-06T12:01:08.725Z,10.90
2023-03-06T12:07:30.616Z,9.80
2023-03-06T12:13:54.327Z,8.23
2023-03-06T12:20:54.380Z,9.30
2023-03-06T12:27:15.402Z,8.90
2023-03-06T12:33:36.720Z,8.97
2023-03-06T12:40:02.953Z,14.70
2023-03-06T12:46:27.026Z,9.60
2023-03-06T12:52:34.353Z,13.87
2023-03-06T12:59:02.479Z,12.10
2023-03-06T13:05:43.938Z,9.47
2023-03-06T13:12:25.866Z,9.97
2023-03-06T13:18:46.120Z,8.33
2023-03-06T13:24:49.452Z,7.77
2023-03-06T13:30:53.368Z,8.20
2023-03-06T13:37:23.113Z,9.10
2023-03-06T13:43:25.183Z,9.77
2023-03-06T13:49:29.117Z,8.50
2023-03-06T13:55:57.097Z,7.37
2023-03-06T14:02:45.667Z,6.40
2023-03-06T14:08:47.775Z,9.97
2023-03-06T14:15:00.172Z,7.97
2023-03-06T14:21:06.248Z,8.43
2023-03-06T14:27:21.399Z,6.23
2023-03-06T14:33:51.232Z,4.80
2023-03-06T14:39:55.189Z,4.57
2023-03-06T14:46:03.141Z,7.00
2023-03-06T14:52:05.304Z,11.07
2023-03-06T14:58:36.086Z,5.63
2023-03-06T15:04:45.904Z,5.40
2023-03-06T15:11:05.773Z,4.90
2023-03-06T15:17:19.845Z,5.13
2023-03-06T15:23:27.236Z,6.80
2023-03-06T15:29:29.185Z,4.50
2023-03-06T15:35:34.264Z,14.20
2023-03-06T15:41:39.083Z,6.83
2023-03-06T15:47:41.307Z,6.80
2023-03-06T15:53:43.194Z,7.40
2023-03-06T15:59:45.553Z,5.43
2023-03-06T16:05:47.605Z,27.33
2023-03-06T16:11:49.675Z,6.90
2023-03-06T16:17:51.602Z,6.30
2023-03-06T16:23:53.651Z,5.57
2023-03-06T16:29:55.535Z,5.27
2023-03-06T16:35:57.456Z,4.47
2023-03-06T16:41:59.329Z,5.00
2023-03-06T16:48:01.324Z,4.60
2023-03-06T16:54:03.281Z,5.30
2023-03-06T17:00:06.621Z,5.40
2023-03-06T17:06:21.287Z,6.00
2023-03-06T17:12:23.166Z,6.00
2023-03-06T17:18:27.636Z,6.63
2023-03-06T17:24:29.556Z,6.07
2023-03-06T17:30:31.454Z,5.80
2023-03-06T17:36:33.662Z,7.40
2023-03-06T17:42:35.892Z,6.70
2023-03-06T17:48:38.124Z,7.10
2023-03-06T17:54:40.431Z,6.13
2023-03-06T18:00:43.052Z,6.90
2023-03-06T18:06:44.977Z,7.83
2023-03-06T18:12:46.872Z,8.07
2023-03-06T18:18:55.990Z,6.77
2023-03-06T18:24:57.891Z,6.67
2023-03-06T18:30:59.850Z,6.83
2023-03-06T18:37:01.727Z,8.60
2023-03-06T18:43:03.643Z,8.17
2023-03-06T18:49:06.466Z,9.10
2023-03-06T18:55:09.547Z,9.77
2023-03-06T19:01:11.896Z,8.87
2023-03-06T19:07:13.949Z,10.17
2023-03-06T19:13:16.047Z,10.53
2023-03-06T19:19:17.953Z,10.87
2023-03-06T19:25:20.233Z,10.40
2023-03-06T19:31:26.236Z,11.20
2023-03-06T19:37:28.300Z,10.07
2023-03-06T19:43:31.054Z,11.53
2023-03-06T19:49:39.843Z,10.77
2023-03-06T19:55:43.037Z,11.90
2023-03-06T20:01:45.117Z,12.77
2023-03-06T20:07:47.201Z,12.67
2023-03-06T20:13:49.761Z,13.20
2023-03-06T20:19:51.729Z,17.00
2023-03-06T20:26:07.247Z,13.17
2023-03-06T20:32:09.213Z,15.53
2023-03-06T20:38:11.684Z,14.13
2023-03-06T20:44:18.029Z,14.47
2023-03-06T20:50:19.906Z,13.70
2023-03-06T20:56:29.186Z,15.93
2023-03-06T21:02:31.150Z,14.40
2023-03-06T21:08:33.032Z,14.70
2023-03-06T21:14:34.911Z,14.07
2023-03-06T21:20:41.178Z,13.80
2023-03-06T21:26:43.081Z,15.60
2023-03-06T21:32:45.024Z,15.10
2023-03-06T21:38:49.423Z,15.67
2023-03-06T21:44:51.323Z,15.53
2023-03-06T21:50:53.224Z,13.97
2023-03-06T21:56:55.216Z,15.27
2023-03-06T22:02:57.201Z,12.97
2023-03-06T22:09:00.848Z,13.87
2023-03-06T22:15:03.121Z,13.70
2023-03-06T22:21:10.739Z,14.90
2023-03-06T22:27:12.613Z,14.47
2023-03-06T22:33:14.521Z,16.27
2023-03-06T22:39:17.234Z,14.70
2023-03-06T22:45:19.150Z,14.87
2023-03-06T22:51:21.614Z,15.70
2023-03-06T22:57:23.720Z,15.60
2023-03-06T23:03:25.588Z,15.37
2023-03-06T23:09:27.515Z,13.80
2023-03-06T23:15:29.448Z,18.10
2023-03-06T23:21:31.573Z,17.53
2023-03-06T23:27:36.204Z,19.87
2023-03-06T23:33:38.802Z,16.90
2023-03-06T23:39:40.789Z,16.00
2023-03-06T23:45:53.669Z,16.03
2023-03-06T23:51:55.569Z,17.63
2023-03-06T23:57:57.438Z,14.27
